sensor_id;sensor_type;location;lat;lon;timestamp;pressure;altitude;pressure_sealevel;temperature;humidity
74163;BME280;62515;52.758;5.076;2023-09-18T00:00:41;100736.94;;;17.41;100.00
74163;BME280;62515;52.758;5.076;2023-09-18T00:03:08;100754.78;;;17.59;100.00
74163;BME280;62515;52.758;5.076;2023-09-18T00:05:35;100751.41;;;17.57;100.00
74163;BME280;62515;52.758;5.076;2023-09-18T00:08:02;100745.47;;;17.54;100.00
74163;BME280;62515;52.758;5.076;2023-09-18T00:10:29;100744.78;;;17.52;100.00
74163;BME280;62515;52.758;5.076;2023-09-18T00:12:57;100740.78;;;17.56;100.00
74163;BME280;62515;52.758;5.076;2023-09-18T00:15:24;100732.72;;;17.56;100.00
74163;BME280;62515;52.758;5.076;2023-09-18T00:17:51;100720.63;;;17.60;100.00
74163;BME280;62515;52.758;5.076;2023-09-18T00:20:18;100716.28;;;17.59;100.00
74163;BME280;62515;52.758;5.076;2023-09-18T00:22:45;100713.41;;;17.60;100.00
74163;BME280;62515;52.758;5.076;2023-09-18T00:25:11;100698.44;;;17.58;100.00
74163;BME280;62515;52.758;5.076;2023-09-18T00:27:38;100645.44;;;17.33;100.00
74163;BME280;62515;52.758;5.076;2023-09-18T00:30:07;100673.50;;;17.56;100.00
74163;BME280;62515;52.758;5.076;2023-09-18T00:32:34;100674.34;;;17.56;100.00
74163;BME280;62515;52.758;5.076;2023-09-18T00:35:00;100668.66;;;17.59;100.00
74163;BME280;62515;52.758;5.076;2023-09-18T00:37:28;100668.50;;;17.61;100.00
74163;BME280;62515;52.758;5.076;2023-09-18T00:39:55;100663.88;;;17.53;100.00
74163;BME280;62515;52.758;5.076;2023-09-18T00:42:22;100660.53;;;17.51;100.00
74163;BME280;62515;52.758;5.076;2023-09-18T00:44:48;100656.97;;;17.51;100.00
74163;BME280;62515;52.758;5.076;2023-09-18T00:47:17;100651.59;;;17.51;100.00
74163;BME280;62515;52.758;5.076;2023-09-18T00:49:47;100646.00;;;17.62;100.00
74163;BME280;62515;52.758;5.076;2023-09-18T00:52:15;100626.00;;;17.47;100.00
74163;BME280;62515;52.758;5.076;2023-09-18T00:54:44;100628.56;;;17.48;100.00
74163;BME280;62515;52.758;5.076;2023-09-18T00:57:12;100609.13;;;17.37;100.00
74163;BME280;62515;52.758;5.076;2023-09-18T00:59:39;100624.63;;;17.43;100.00
74163;BME280;62515;52.758;5.076;2023-09-18T01:02:06;100632.03;;;17.41;100.00
74163;BME280;62515;52.758;5.076;2023-09-18T01:04:35;100603.66;;;17.20;100.00
74163;BME280;62515;52.758;5.076;2023-09-18T01:07:02;100623.91;;;17.33;100.00
74163;BME280;62515;52.758;5.076;2023-09-18T01:09:29;100609.94;;;17.29;100.00
74163;BME280;62515;52.758;5.076;2023-09-18T01:12:03;100602.72;;;17.30;100.00
74163;BME280;62515;52.758;5.076;2023-09-18T01:14:37;100602.88;;;17.28;100.00
74163;BME280;62515;52.758;5.076;2023-09-18T01:17:09;100592.25;;;17.26;100.00
74163;BME280;62515;52.758;5.076;2023-09-18T01:19:39;100572.72;;;17.16;100.00
74163;BME280;62515;52.758;5.076;2023-09-18T01:22:07;100575.41;;;17.16;100.00
74163;BME280;62515;52.758;5.076;2023-09-18T01:24:36;100565.31;;;17.18;100.00
74163;BME280;62515;52.758;5.076;2023-09-18T01:27:04;100564.56;;;17.34;100.00
74163;BME280;62515;52.758;5.076;2023-09-18T01:29:31;100547.97;;;17.47;100.00
74163;BME280;62515;52.758;5.076;2023-09-18T01:31:58;100528.75;;;17.34;100.00
74163;BME280;62515;52.758;5.076;2023-09-18T01:34:28;100547.41;;;17.61;100.00
74163;BME280;62515;52.758;5.076;2023-09-18T01:36:57;100533.31;;;17.67;100.00
74163;BME280;62515;52.758;5.076;2023-09-18T01:39:25;100534.97;;;17.60;100.00
74163;BME280;62515;52.758;5.076;2023-09-18T01:41:55;100527.72;;;17.60;100.00
74163;BME280;62515;52.758;5.076;2023-09-18T01:44:22;100534.97;;;17.60;100.00
74163;BME280;62515;52.758;5.076;2023-09-18T01:46:49;100510.84;;;17.50;100.00
74163;BME280;62515;52.758;5.076;2023-09-18T01:49:26;100511.78;;;17.59;100.00
74163;BME280;62515;52.758;5.076;2023-09-18T01:51:53;100488.28;;;17.43;100.00
74163;BME280;62515;52.758;5.076;2023-09-18T01:54:20;100515.22;;;17.51;100.00
74163;BME280;62515;52.758;5.076;2023-09-18T01:56:46;100508.66;;;17.54;100.00
74163;BME280;62515;52.758;5.076;2023-09-18T01:59:14;100498.88;;;17.45;100.00
74163;BME280;62515;52.758;5.076;2023-09-18T02:01:41;100512.34;;;17.53;100.00
74163;BME280;62515;52.758;5.076;2023-09-18T02:04:09;100505.63;;;17.49;100.00
74163;BME280;62515;52.758;5.076;2023-09-18T02:06:55;100502.56;;;17.44;100.00
74163;BME280;62515;52.758;5.076;2023-09-18T02:09:22;100501.59;;;17.45;100.00
74163;BME280;62515;52.758;5.076;2023-09-18T02:11:49;100502.56;;;17.44;100.00
74163;BME280;62515;52.758;5.076;2023-09-18T02:14:17;100504.59;;;17.42;100.00
74163;BME280;62515;52.758;5.076;2023-09-18T02:16:44;100469.06;;;17.30;100.00
74163;BME280;62515;52.758;5.076;2023-09-18T02:19:12;100464.72;;;17.37;100.00
74163;BME280;62515;52.758;5.076;2023-09-18T02:21:39;100470.16;;;17.45;100.00
74163;BME280;62515;52.758;5.076;2023-09-18T02:24:07;100475.88;;;17.50;100.00
74163;BME280;62515;52.758;5.076;2023-09-18T02:26:33;100473.88;;;17.52;100.00
74163;BME280;62515;52.758;5.076;2023-09-18T02:29:01;100487.56;;;17.59;100.00
74163;BME280;62515;52.758;5.076;2023-09-18T02:31:31;100492.78;;;17.68;100.00
74163;BME280;62515;52.758;5.076;2023-09-18T02:33:58;100471.06;;;17.62;100.00
74163;BME280;62515;52.758;5.076;2023-09-18T02:36:25;100484.41;;;17.80;100.00
74163;BME280;62515;52.758;5.076;2023-09-18T02:38:51;100482.41;;;17.82;100.00
74163;BME280;62515;52.758;5.076;2023-09-18T02:41:18;100475.13;;;17.82;100.00
74163;BME280;62515;52.758;5.076;2023-09-18T02:43:45;100477.84;;;17.82;100.00
74163;BME280;62515;52.758;5.076;2023-09-18T02:46:12;100471.78;;;17.80;100.00
74163;BME280;62515;52.758;5.076;2023-09-18T02:48:40;100440.28;;;17.64;100.00
74163;BME280;62515;52.758;5.076;2023-09-18T02:51:08;100460.88;;;17.82;100.00
74163;BME280;62515;52.758;5.076;2023-09-18T02:53:34;100457.00;;;17.84;100.00
74163;BME280;62515;52.758;5.076;2023-09-18T02:56:01;100439.81;;;17.77;100.00
74163;BME280;62515;52.758;5.076;2023-09-18T02:58:28;100422.81;;;17.76;100.00
74163;BME280;62515;52.758;5.076;2023-09-18T03:00:57;100438.84;;;17.94;100.00
74163;BME280;62515;52.758;5.076;2023-09-18T03:03:24;100416.59;;;17.92;100.00
74163;BME280;62515;52.758;5.076;2023-09-18T03:06:00;100441.34;;;18.12;100.00
74163;BME280;62515;52.758;5.076;2023-09-18T03:08:27;100405.19;;;18.06;100.00
74163;BME280;62515;52.758;5.076;2023-09-18T03:10:54;100408.53;;;18.16;100.00
74163;BME280;62515;52.758;5.076;2023-09-18T03:13:22;100408.53;;;18.16;100.00
74163;BME280;62515;52.758;5.076;2023-09-18T03:15:49;100395.94;;;18.17;100.00
74163;BME280;62515;52.758;5.076;2023-09-18T03:18:15;100393.75;;;18.20;100.00
74163;BME280;62515;52.758;5.076;2023-09-18T03:20:42;100388.34;;;18.20;100.00
74163;BME280;62515;52.758;5.076;2023-09-18T03:23:11;100367.78;;;18.11;100.00
74163;BME280;62515;52.758;5.076;2023-09-18T03:25:37;100369.84;;;18.17;100.00
74163;BME280;62515;52.758;5.076;2023-09-18T03:28:18;100356.69;;;18.14;100.00
74163;BME280;62515;52.758;5.076;2023-09-18T03:30:44;100353.34;;;18.12;100.00
74163;BME280;62515;52.758;5.076;2023-09-18T03:33:11;100358.72;;;18.12;100.00
74163;BME280;62515;52.758;5.076;2023-09-18T03:35:45;100356.88;;;18.13;100.00
74163;BME280;62515;52.758;5.076;2023-09-18T03:38:14;100300.88;;;17.84;100.00
74163;BME280;62515;52.758;5.076;2023-09-18T03:40:41;100302.69;;;17.92;100.00
74163;BME280;62515;52.758;5.076;2023-09-18T03:43:09;100322.69;;;18.05;100.00
74163;BME280;62515;52.758;5.076;2023-09-18T03:45:36;100336.50;;;18.10;100.00
74163;BME280;62515;52.758;5.076;2023-09-18T03:48:03;100299.50;;;17.96;100.00
74163;BME280;62515;52.758;5.076;2023-09-18T03:50:30;100310.75;;;18.16;100.00
74163;BME280;62515;52.758;5.076;2023-09-18T03:52:57;100295.47;;;18.00;100.00
74163;BME280;62515;52.758;5.076;2023-09-18T03:55:25;100298.13;;;18.08;100.00
74163;BME280;62515;52.758;5.076;2023-09-18T03:57:52;100291.22;;;18.06;100.00
74163;BME280;62515;52.758;5.076;2023-09-18T04:00:21;100301.13;;;18.21;100.00
74163;BME280;62515;52.758;5.076;2023-09-18T04:02:48;100274.88;;;18.15;100.00
74163;BME280;62515;52.758;5.076;2023-09-18T04:05:14;100288.31;;;18.32;100.00
74163;BME280;62515;52.758;5.076;2023-09-18T04:07:41;100287.47;;;18.31;100.00
74163;BME280;62515;52.758;5.076;2023-09-18T04:10:08;100286.63;;;18.30;100.00
74163;BME280;62515;52.758;5.076;2023-09-18T04:12:36;100284.97;;;18.29;100.00
74163;BME280;62515;52.758;5.076;2023-09-18T04:15:04;100273.69;;;18.26;100.00
74163;BME280;62515;52.758;5.076;2023-09-18T04:17:31;100281.22;;;18.30;100.00
74163;BME280;62515;52.758;5.076;2023-09-18T04:19:58;100257.03;;;18.22;100.00
74163;BME280;62515;52.758;5.076;2023-09-18T04:22:24;100257.53;;;18.26;100.00
74163;BME280;62515;52.758;5.076;2023-09-18T04:24:51;100249.97;;;18.21;100.00
74163;BME280;62515;52.758;5.076;2023-09-18T04:27:18;100238.72;;;18.10;100.00
74163;BME280;62515;52.758;5.076;2023-09-18T04:29:46;100251.94;;;18.27;100.00
74163;BME280;62515;52.758;5.076;2023-09-18T04:32:13;100226.13;;;18.02;100.00
74163;BME280;62515;52.758;5.076;2023-09-18T04:34:39;100261.38;;;18.32;100.00
74163;BME280;62515;52.758;5.076;2023-09-18T04:37:06;100243.53;;;18.30;100.00
74163;BME280;62515;52.758;5.076;2023-09-18T04:39:34;100234.13;;;18.26;100.00
74163;BME280;62515;52.758;5.076;2023-09-18T04:42:01;100242.00;;;18.36;100.00
74163;BME280;62515;52.758;5.076;2023-09-18T04:44:28;100235.28;;;18.24;100.00
74163;BME280;62515;52.758;5.076;2023-09-18T04:46:57;100272.97;;;18.40;100.00
74163;BME280;62515;52.758;5.076;2023-09-18T04:49:25;100270.94;;;18.42;100.00
74163;BME280;62515;52.758;5.076;2023-09-18T04:51:51;100279.53;;;18.46;100.00
74163;BME280;62515;52.758;5.076;2023-09-18T04:54:18;100292.13;;;18.53;100.00
74163;BME280;62515;52.758;5.076;2023-09-18T04:56:45;100309.09;;;18.70;100.00
74163;BME280;62515;52.758;5.076;2023-09-18T04:59:12;100301.53;;;18.65;100.00
74163;BME280;62515;52.758;5.076;2023-09-18T05:01:39;100324.91;;;18.73;100.00
74163;BME280;62515;52.758;5.076;2023-09-18T05:04:07;100302.56;;;18.64;100.00
74163;BME280;62515;52.758;5.076;2023-09-18T05:06:33;100288.09;;;18.57;100.00
74163;BME280;62515;52.758;5.076;2023-09-18T05:09:00;100278.88;;;18.36;100.00
74163;BME280;62515;52.758;5.076;2023-09-18T05:11:27;100307.16;;;18.40;100.00
74163;BME280;62515;52.758;5.076;2023-09-18T05:13:54;100313.56;;;18.30;100.00
74163;BME280;62515;52.758;5.076;2023-09-18T05:16:20;100332.25;;;18.32;100.00
74163;BME280;62515;52.758;5.076;2023-09-18T05:18:47;100262.47;;;18.06;100.00
74163;BME280;62515;52.758;5.076;2023-09-18T05:21:15;100297.94;;;18.18;100.00
74163;BME280;62515;52.758;5.076;2023-09-18T05:23:42;100273.56;;;17.95;100.00
74163;BME280;62515;52.758;5.076;2023-09-18T05:26:09;100286.34;;;18.01;100.00
74163;BME280;62515;52.758;5.076;2023-09-18T05:28:36;100263.84;;;17.94;100.00
74163;BME280;62515;52.758;5.076;2023-09-18T05:31:02;100226.84;;;17.72;100.00
74163;BME280;62515;52.758;5.076;2023-09-18T05:33:29;100217.59;;;17.66;100.00
74163;BME280;62515;52.758;5.076;2023-09-18T05:35:56;100245.69;;;17.80;100.00
74163;BME280;62515;52.758;5.076;2023-09-18T05:38:24;100234.25;;;17.78;100.00
74163;BME280;62515;52.758;5.076;2023-09-18T05:40:51;100235.59;;;17.74;100.00
74163;BME280;62515;52.758;5.076;2023-09-18T05:43:17;100235.75;;;17.72;100.00
74163;BME280;62515;52.758;5.076;2023-09-18T05:45:44;100209.38;;;17.52;100.00
74163;BME280;62515;52.758;5.076;2023-09-18T05:48:11;100236.97;;;17.62;100.00
74163;BME280;62515;52.758;5.076;2023-09-18T05:50:38;100257.81;;;17.60;100.00
74163;BME280;62515;52.758;5.076;2023-09-18T05:53:05;100258.13;;;17.49;100.00
74163;BME280;62515;52.758;5.076;2023-09-18T05:55:33;100277.31;;;17.62;100.00
74163;BME280;62515;52.758;5.076;2023-09-18T05:58:00;100265.38;;;17.56;100.00
74163;BME280;62515;52.758;5.076;2023-09-18T06:00:29;100282.03;;;17.68;100.00
74163;BME280;62515;52.758;5.076;2023-09-18T06:02:56;100266.19;;;17.49;100.00
74163;BME280;62515;52.758;5.076;2023-09-18T06:05:23;100296.50;;;17.67;100.00
74163;BME280;62515;52.758;5.076;2023-09-18T06:07:50;100270.53;;;17.50;100.00
74163;BME280;62515;52.758;5.076;2023-09-18T06:10:17;100316.34;;;17.74;100.00
74163;BME280;62515;52.758;5.076;2023-09-18T06:12:45;100285.06;;;17.57;100.00
74163;BME280;62515;52.758;5.076;2023-09-18T06:15:12;100304.38;;;17.76;100.00
74163;BME280;62515;52.758;5.076;2023-09-18T06:17:40;100262.69;;;17.56;100.00
74163;BME280;62515;52.758;5.076;2023-09-18T06:20:09;100298.16;;;17.76;100.00
74163;BME280;62515;52.758;5.076;2023-09-18T06:22:36;100264.31;;;17.49;100.00
74163;BME280;62515;52.758;5.076;2023-09-18T06:25:04;100273.28;;;17.58;100.00
74163;BME280;62515;52.758;5.076;2023-09-18T06:27:31;100292.44;;;17.79;100.00
74163;BME280;62515;52.758;5.076;2023-09-18T06:30:02;100270.25;;;17.61;100.00
74163;BME280;62515;52.758;5.076;2023-09-18T06:32:30;100302.53;;;17.77;100.00
74163;BME280;62515;52.758;5.076;2023-09-18T06:34:56;100295.81;;;17.81;100.00
74163;BME280;62515;52.758;5.076;2023-09-18T06:37:23;100269.91;;;17.80;100.00
74163;BME280;62515;52.758;5.076;2023-09-18T06:39:50;100270.22;;;17.85;100.00
74163;BME280;62515;52.758;5.076;2023-09-18T06:42:17;100273.25;;;17.90;100.00
74163;BME280;62515;52.758;5.076;2023-09-18T06:44:44;100263.34;;;17.91;100.00
74163;BME280;62515;52.758;5.076;2023-09-18T06:47:12;100241.81;;;17.74;100.00
74163;BME280;62515;52.758;5.076;2023-09-18T06:49:39;100268.72;;;17.91;100.00
74163;BME280;62515;52.758;5.076;2023-09-18T06:52:05;100222.13;;;17.66;100.00
74163;BME280;62515;52.758;5.076;2023-09-18T06:54:32;100237.94;;;17.77;100.00
74163;BME280;62515;52.758;5.076;2023-09-18T06:56:59;100270.53;;;17.98;100.00
74163;BME280;62515;52.758;5.076;2023-09-18T06:59:26;100267.69;;;18.00;100.00
74163;BME280;62515;52.758;5.076;2023-09-18T07:01:58;100246.69;;;17.87;100.00
74163;BME280;62515;52.758;5.076;2023-09-18T07:04:26;100239.94;;;17.83;100.00
74163;BME280;62515;52.758;5.076;2023-09-18T07:06:53;100268.53;;;18.00;100.00
74163;BME280;62515;52.758;5.076;2023-09-18T07:09:20;100267.34;;;18.03;100.00
74163;BME280;62515;52.758;5.076;2023-09-18T07:11:47;100249.69;;;18.00;100.00
74163;BME280;62515;52.758;5.076;2023-09-18T07:14:13;100262.47;;;18.06;100.00
74163;BME280;62515;52.758;5.076;2023-09-18T07:16:40;100261.28;;;18.09;100.00
74163;BME280;62515;52.758;5.076;2023-09-18T07:19:08;100221.47;;;17.88;100.00
74163;BME280;62515;52.758;5.076;2023-09-18T07:21:36;100242.59;;;18.07;100.00
74163;BME280;62515;52.758;5.076;2023-09-18T07:24:03;100243.09;;;18.11;100.00
74163;BME280;62515;52.758;5.076;2023-09-18T07:26:29;100240.41;;;18.11;100.00
74163;BME280;62515;52.758;5.076;2023-09-18T07:28:56;100225.06;;;18.11;100.00
74163;BME280;62515;52.758;5.076;2023-09-18T07:31:26;100227.75;;;18.11;100.00
74163;BME280;62515;52.758;5.076;2023-09-18T07:33:53;100223.72;;;18.15;100.00
74163;BME280;62515;52.758;5.076;2023-09-18T07:36:20;100210.25;;;18.23;100.00
74163;BME280;62515;52.758;5.076;2023-09-18T07:38:48;100208.84;;;18.27;100.00
74163;BME280;62515;52.758;5.076;2023-09-18T07:41:15;100197.28;;;18.19;100.00
74163;BME280;62515;52.758;5.076;2023-09-18T07:43:41;100202.78;;;18.34;100.00
74163;BME280;62515;52.758;5.076;2023-09-18T07:46:08;100200.56;;;18.37;100.00
74163;BME280;62515;52.758;5.076;2023-09-18T07:48:35;100213.16;;;18.45;100.00
74163;BME280;62515;52.758;5.076;2023-09-18T07:51:02;100217.56;;;18.46;100.00
74163;BME280;62515;52.758;5.076;2023-09-18T07:53:29;100223.41;;;18.57;100.00
74163;BME280;62515;52.758;5.076;2023-09-18T07:55:57;100223.06;;;18.60;100.00
74163;BME280;62515;52.758;5.076;2023-09-18T07:58:24;100209.19;;;18.71;100.00
74163;BME280;62515;52.758;5.076;2023-09-18T08:00:51;100183.31;;;18.62;100.00
74163;BME280;62515;52.758;5.076;2023-09-18T08:03:18;100221.44;;;18.82;100.00
74163;BME280;62515;52.758;5.076;2023-09-18T08:05:44;100216.75;;;18.76;100.00
74163;BME280;62515;52.758;5.076;2023-09-18T08:08:11;100247.13;;;18.93;100.00
74163;BME280;62515;52.758;5.076;2023-09-18T08:10:38;100239.25;;;18.91;100.00
74163;BME280;62515;52.758;5.076;2023-09-18T08:13:06;100251.94;;;19.05;100.00
74163;BME280;62515;52.758;5.076;2023-09-18T08:15:33;100255.94;;;19.17;100.00
74163;BME280;62515;52.758;5.076;2023-09-18T08:18:00;100257.91;;;19.23;100.00
74163;BME280;62515;52.758;5.076;2023-09-18T08:20:27;100256.03;;;19.24;100.00
74163;BME280;62515;52.758;5.076;2023-09-18T08:22:53;100248.78;;;19.24;100.00
74163;BME280;62515;52.758;5.076;2023-09-18T08:25:24;100255.50;;;19.51;100.00
74163;BME280;62515;52.758;5.076;2023-09-18T08:27:50;100263.97;;;19.48;100.00
74163;BME280;62515;52.758;5.076;2023-09-18T08:30:18;100274.28;;;19.45;100.00
74163;BME280;62515;52.758;5.076;2023-09-18T08:32:45;100246.28;;;19.46;100.00
74163;BME280;62515;52.758;5.076;2023-09-18T08:35:12;100267.09;;;19.60;100.00
74163;BME280;62515;52.758;5.076;2023-09-18T08:37:40;100268.59;;;19.62;100.00
74163;BME280;62515;52.758;5.076;2023-09-18T08:40:09;100256.09;;;19.61;100.00
74163;BME280;62515;52.758;5.076;2023-09-18T08:42:38;100254.63;;;19.59;100.00
74163;BME280;62515;52.758;5.076;2023-09-18T08:45:09;100251.50;;;19.84;100.00
74163;BME280;62515;52.758;5.076;2023-09-18T08:47:39;100229.44;;;19.81;100.00
74163;BME280;62515;52.758;5.076;2023-09-18T08:50:07;100256.78;;;20.30;100.00
74163;BME280;62515;52.758;5.076;2023-09-18T08:52:35;100247.00;;;20.44;100.00
74163;BME280;62515;52.758;5.076;2023-09-18T08:55:02;100258.72;;;20.80;100.00
74163;BME280;62515;52.758;5.076;2023-09-18T08:57:29;100220.09;;;20.71;100.00
74163;BME280;62515;52.758;5.076;2023-09-18T08:59:57;100251.66;;;21.00;100.00
74163;BME280;62515;52.758;5.076;2023-09-18T09:02:24;100228.75;;;20.81;100.00
74163;BME280;62515;52.758;5.076;2023-09-18T09:04:52;100242.72;;;20.64;100.00
74163;BME280;62515;52.758;5.076;2023-09-18T09:07:19;100223.53;;;20.44;100.00
74163;BME280;62515;52.758;5.076;2023-09-18T09:09:45;100256.88;;;20.66;100.00
74163;BME280;62515;52.758;5.076;2023-09-18T09:12:12;100248.84;;;20.72;100.00
74163;BME280;62515;52.758;5.076;2023-09-18T09:14:39;100256.38;;;20.77;100.00
74163;BME280;62515;52.758;5.076;2023-09-18T09:17:06;100248.00;;;20.72;100.00
74163;BME280;62515;52.758;5.076;2023-09-18T09:19:34;100264.41;;;20.56;100.00
74163;BME280;62515;52.758;5.076;2023-09-18T09:22:03;100259.22;;;20.40;100.00
74163;BME280;62515;52.758;5.076;2023-09-18T09:24:37;100267.06;;;20.34;100.00
74163;BME280;62515;52.758;5.076;2023-09-18T09:27:04;100275.69;;;20.74;100.00
74163;BME280;62515;52.758;5.076;2023-09-18T09:29:31;100276.47;;;20.53;100.00
74163;BME280;62515;52.758;5.076;2023-09-18T09:32:12;100269.06;;;20.18;100.00
74163;BME280;62515;52.758;5.076;2023-09-18T09:34:40;100290.78;;;20.24;100.00
74163;BME280;62515;52.758;5.076;2023-09-18T09:37:08;100284.38;;;20.69;100.00
74163;BME280;62515;52.758;5.076;2023-09-18T09:39:46;100297.34;;;20.45;100.00
74163;BME280;62515;52.758;5.076;2023-09-18T09:42:12;100301.25;;;20.27;100.00
74163;BME280;62515;52.758;5.076;2023-09-18T09:44:39;100300.69;;;20.76;100.00
74163;BME280;62515;52.758;5.076;2023-09-18T09:47:06;100305.91;;;21.70;100.00
74163;BME280;62515;52.758;5.076;2023-09-18T09:49:45;100295.41;;;21.18;100.00
74163;BME280;62515;52.758;5.076;2023-09-18T09:52:18;100282.53;;;20.91;100.00
74163;BME280;62515;52.758;5.076;2023-09-18T09:54:45;100295.81;;;20.86;100.00
74163;BME280;62515;52.758;5.076;2023-09-18T09:57:12;100296.69;;;22.07;100.00
74163;BME280;62515;52.758;5.076;2023-09-18T09:59:40;100298.03;;;22.93;100.00
74163;BME280;62515;52.758;5.076;2023-09-18T10:02:07;100285.84;;;22.69;100.00
74163;BME280;62515;52.758;5.076;2023-09-18T10:04:35;100296.78;;;22.20;100.00
74163;BME280;62515;52.758;5.076;2023-09-18T10:07:06;100293.50;;;22.31;100.00
74163;BME280;62515;52.758;5.076;2023-09-18T10:09:35;100287.34;;;22.51;100.00
74163;BME280;62515;52.758;5.076;2023-09-18T10:12:10;100281.22;;;22.70;100.00
74163;BME280;62515;52.758;5.076;2023-09-18T10:14:38;100286.91;;;22.75;100.00
74163;BME280;62515;52.758;5.076;2023-09-18T10:17:25;100272.75;;;22.86;100.00
74163;BME280;62515;52.758;5.076;2023-09-18T10:20:01;100281.59;;;22.26;100.00
74163;BME280;62515;52.758;5.076;2023-09-18T10:22:31;100285.53;;;21.96;100.00
74163;BME280;62515;52.758;5.076;2023-09-18T10:25:14;100292.13;;;22.14;100.00
74163;BME280;62515;52.758;5.076;2023-09-18T10:27:42;100281.25;;;22.76;100.00
74163;BME280;62515;52.758;5.076;2023-09-18T10:30:09;100285.66;;;22.77;100.00
74163;BME280;62515;52.758;5.076;2023-09-18T10:32:37;100272.84;;;22.65;100.00
74163;BME280;62515;52.758;5.076;2023-09-18T10:35:06;100279.84;;;22.87;100.00
74163;BME280;62515;52.758;5.076;2023-09-18T10:37:34;100282.34;;;22.48;100.00
74163;BME280;62515;52.758;5.076;2023-09-18T10:40:05;100286.13;;;21.91;100.00
74163;BME280;62515;52.758;5.076;2023-09-18T10:42:34;100286.06;;;21.63;100.00
74163;BME280;62515;52.758;5.076;2023-09-18T10:45:02;100274.59;;;21.40;100.00
74163;BME280;62515;52.758;5.076;2023-09-18T10:47:30;100290.38;;;21.58;100.00
74163;BME280;62515;52.758;5.076;2023-09-18T10:50:01;100278.78;;;22.13;100.00
74163;BME280;62515;52.758;5.076;2023-09-18T10:52:28;100298.09;;;21.82;100.00
74163;BME280;62515;52.758;5.076;2023-09-18T10:54:55;100283.28;;;21.57;100.00
74163;BME280;62515;52.758;5.076;2023-09-18T10:57:23;100283.94;;;22.35;100.00
74163;BME280;62515;52.758;5.076;2023-09-18T10:59:54;100288.03;;;23.00;100.00
74163;BME280;62515;52.758;5.076;2023-09-18T11:02:21;100293.91;;;23.04;100.00
74163;BME280;62515;52.758;5.076;2023-09-18T11:04:52;100308.16;;;22.43;100.00
74163;BME280;62515;52.758;5.076;2023-09-18T11:07:20;100306.50;;;21.87;100.00
74163;BME280;62515;52.758;5.076;2023-09-18T11:09:48;100259.94;;;22.32;100.00
74163;BME280;62515;52.758;5.076;2023-09-18T11:12:16;100307.03;;;23.87;100.00
74163;BME280;62515;52.758;5.076;2023-09-18T11:14:46;100296.41;;;24.12;100.00
74163;BME280;62515;52.758;5.076;2023-09-18T11:17:38;100303.09;;;23.83;100.00
74163;BME280;62515;52.758;5.076;2023-09-18T11:20:08;100305.63;;;23.11;100.00
74163;BME280;62515;52.758;5.076;2023-09-18T11:22:35;100295.25;;;23.34;100.00
74163;BME280;62515;52.758;5.076;2023-09-18T11:25:30;100304.13;;;24.08;100.00
74163;BME280;62515;52.758;5.076;2023-09-18T11:28:01;100284.59;;;24.64;100.00
74163;BME280;62515;52.758;5.076;2023-09-18T11:30:30;100294.06;;;25.43;100.00
74163;BME280;62515;52.758;5.076;2023-09-18T11:32:57;100324.00;;;25.88;100.00
74163;BME280;62515;52.758;5.076;2023-09-18T11:35:24;100317.72;;;25.49;100.00
74163;BME280;62515;52.758;5.076;2023-09-18T11:38:05;100308.84;;;25.29;100.00
74163;BME280;62515;52.758;5.076;2023-09-18T11:40:33;100316.22;;;25.60;100.00
74163;BME280;62515;52.758;5.076;2023-09-18T11:43:19;100301.50;;;25.92;100.00
74163;BME280;62515;52.758;5.076;2023-09-18T11:45:50;100297.41;;;25.52;100.00
74163;BME280;62515;52.758;5.076;2023-09-18T11:48:18;100295.59;;;25.71;100.00
74163;BME280;62515;52.758;5.076;2023-09-18T11:50:46;100297.97;;;24.65;100.00
74163;BME280;62515;52.758;5.076;2023-09-18T11:53:13;100267.31;;;23.40;100.00
74163;BME280;62515;52.758;5.076;2023-09-18T11:55:40;100294.66;;;22.84;100.00
74163;BME280;62515;52.758;5.076;2023-09-18T11:58:07;100304.44;;;22.45;100.00
74163;BME280;62515;52.758;5.076;2023-09-18T12:00:33;100255.63;;;22.79;100.00
74163;BME280;62515;52.758;5.076;2023-09-18T12:03:15;100295.97;;;23.69;100.00
74163;BME280;62515;52.758;5.076;2023-09-18T12:05:42;100298.81;;;24.66;100.00
74163;BME280;62515;52.758;5.076;2023-09-18T12:08:11;100289.00;;;24.52;100.00
74163;BME280;62515;52.758;5.076;2023-09-18T12:10:37;100296.44;;;24.95;100.00
74163;BME280;62515;52.758;5.076;2023-09-18T12:13:06;100287.13;;;24.52;100.00
74163;BME280;62515;52.758;5.076;2023-09-18T12:15:32;100287.78;;;25.05;100.00
74163;BME280;62515;52.758;5.076;2023-09-18T12:18:05;100294.19;;;25.62;100.00
74163;BME280;62515;52.758;5.076;2023-09-18T12:20:33;100295.00;;;25.62;100.00
74163;BME280;62515;52.758;5.076;2023-09-18T12:23:00;100297.72;;;25.62;100.00
74163;BME280;62515;52.758;5.076;2023-09-18T12:25:27;100274.28;;;24.72;100.00
74163;BME280;62515;52.758;5.076;2023-09-18T12:27:54;100284.13;;;24.73;100.00
74163;BME280;62515;52.758;5.076;2023-09-18T12:30:22;100284.88;;;24.29;100.00
74163;BME280;62515;52.758;5.076;2023-09-18T12:32:50;100279.03;;;23.93;100.00
74163;BME280;62515;52.758;5.076;2023-09-18T12:35:17;100276.31;;;23.60;100.00
74163;BME280;62515;52.758;5.076;2023-09-18T12:37:45;100286.00;;;23.22;100.00
74163;BME280;62515;52.758;5.076;2023-09-18T12:40:26;100301.00;;;22.98;100.00
74163;BME280;62515;52.758;5.076;2023-09-18T12:42:55;100294.56;;;23.19;100.00
74163;BME280;62515;52.758;5.076;2023-09-18T12:45:22;100272.69;;;23.33;100.00